Terminal Aerodrome Forecast
Issued by NWS Wilmington, OH

Current Version | Previous Version | Graphics & Text | Print | Product List | Glossary On
Versions: 1 2 3 4 5 6 7 8 9 10 11 12 13
804
FTUS41 KILN 031732
TAFILN
TAF
KILN 031732Z 0318/0418 22019G28KT P6SM FEW040
     FM040200 26013G22KT P6SM OVC025
     FM040500 26012KT P6SM OVC015
     FM041500 26009KT P6SM BKN025=

USA.gov is the U.S. government's official web portal to all federal, state and local government web resources and services.